Wildrose, North Dakota
Current Conditions -  °F | °C
As of 7:35 PM on Friday 19 Dec 2014 (Local Time) from KD60 Reporting Station
Moderate Fog Moderate Fog  
Wind Chill: 19°   Ceiling: 200
Heat Index: 19°   Visibility: 0.25mi
Dew Point: 19°   Wind: 0mph
Humidity: 100%   Direction: NA
Pressure: 29.93"   Gusts: NA
Location:  48.63°N, 103.18°W
Report Text: KD60 200135Z AUTO 00000KT 1/4SM FZFG OVC002 M07/M07 A2993 RMK AO2
Loading
Personal Weather Stations






























Interactive Weather Map New forecast layout! Learn more

10-Day Weather Forecast

Advertisements
Track Severe Weather on mobile